createdAt,value
2023-03-29T00:02:09.791Z,100.00
2023-03-29T00:05:13.315Z,100.00
2023-03-29T00:08:18.451Z,100.00
2023-03-29T00:11:22.500Z,100.00
2023-03-29T00:14:26.886Z,100.00
2023-03-29T00:17:30.483Z,100.00
2023-03-29T00:20:33.316Z,100.00
2023-03-29T00:23:36.372Z,100.00
2023-03-29T00:26:39.067Z,100.00
2023-03-29T00:29:42.330Z,100.00
2023-03-29T00:32:46.091Z,100.00
2023-03-29T00:35:49.398Z,100.00
2023-03-29T00:38:52.560Z,100.00
2023-03-29T00:41:55.808Z,100.00
2023-03-29T00:45:00.424Z,100.00
2023-03-29T00:48:07.135Z,100.00
2023-03-29T00:51:14.396Z,100.00
2023-03-29T00:54:18.844Z,100.00
2023-03-29T00:57:25.827Z,100.00
2023-03-29T01:00:35.565Z,100.00
2023-03-29T01:03:46.328Z,100.00
2023-03-29T01:07:07.427Z,100.00
2023-03-29T01:10:15.610Z,100.00
2023-03-29T01:13:26.290Z,100.00
2023-03-29T01:16:31.290Z,100.00
2023-03-29T01:19:59.566Z,100.00
2023-03-29T01:23:21.302Z,100.00
2023-03-29T01:26:44.424Z,100.00
2023-03-29T01:30:02.163Z,100.00
2023-03-29T01:33:10.224Z,100.00
2023-03-29T01:36:16.564Z,100.00
2023-03-29T01:39:20.545Z,100.00
2023-03-29T01:42:29.330Z,100.00
2023-03-29T01:45:48.738Z,100.00
2023-03-29T01:48:58.929Z,100.00
2023-03-29T01:52:10.347Z,100.00
2023-03-29T01:55:18.542Z,100.00
2023-03-29T01:58:26.452Z,100.00
2023-03-29T02:01:34.852Z,100.00
2023-03-29T02:04:45.893Z,100.00
2023-03-29T02:07:50.553Z,100.00
2023-03-29T02:10:54.502Z,100.00
2023-03-29T02:13:57.799Z,100.00
2023-03-29T02:17:15.457Z,100.00
2023-03-29T02:20:22.743Z,100.00
2023-03-29T02:23:49.234Z,100.00
2023-03-29T02:26:52.682Z,100.00
2023-03-29T02:29:57.232Z,100.00
2023-03-29T02:33:21.980Z,100.00
2023-03-29T02:36:34.041Z,100.00
2023-03-29T02:39:39.758Z,100.00
2023-03-29T02:42:46.113Z,100.00
2023-03-29T02:45:50.624Z,100.00
2023-03-29T02:48:56.215Z,100.00
2023-03-29T02:52:10.889Z,100.00
2023-03-29T02:55:17.353Z,100.00
2023-03-29T02:58:20.670Z,100.00
2023-03-29T03:01:23.781Z,100.00
2023-03-29T03:04:27.279Z,100.00
2023-03-29T03:07:30.156Z,100.00
2023-03-29T03:10:34.829Z,100.00
2023-03-29T03:13:39.328Z,100.00
2023-03-29T03:16:43.370Z,100.00
2023-03-29T03:19:46.442Z,100.00
2023-03-29T03:22:49.693Z,100.00
2023-03-29T03:25:52.940Z,100.00
2023-03-29T03:28:56.894Z,100.00
2023-03-29T03:32:04.240Z,100.00
2023-03-29T03:35:10.054Z,100.00
2023-03-29T03:38:12.993Z,100.00
2023-03-29T03:41:16.096Z,100.00
2023-03-29T03:44:18.754Z,100.00
2023-03-29T03:47:23.777Z,100.00
2023-03-29T03:50:27.492Z,100.00
2023-03-29T03:53:30.888Z,100.00
2023-03-29T03:56:35.632Z,100.00
2023-03-29T03:59:41.147Z,100.00
2023-03-29T04:02:46.720Z,100.00
2023-03-29T04:05:50.051Z,100.00
2023-03-29T04:08:53.498Z,100.00
2023-03-29T04:12:01.577Z,100.00
2023-03-29T04:15:06.344Z,100.00
2023-03-29T04:18:09.762Z,100.00
2023-03-29T04:21:13.920Z,100.00
2023-03-29T04:24:17.306Z,100.00
2023-03-29T04:27:22.308Z,100.00
2023-03-29T04:30:25.378Z,100.00
2023-03-29T04:33:30.316Z,100.00
2023-03-29T04:36:34.280Z,100.00
2023-03-29T04:39:38.869Z,100.00
2023-03-29T04:42:45.900Z,100.00
2023-03-29T04:45:48.803Z,100.00
2023-03-29T04:48:52.438Z,100.00
2023-03-29T04:51:57.941Z,100.00
2023-03-29T04:55:02.757Z,100.00
2023-03-29T04:58:07.187Z,100.00
2023-03-29T05:01:11.075Z,100.00
2023-03-29T05:04:14.244Z,100.00
2023-03-29T05:07:19.268Z,100.00
2023-03-29T05:10:23.328Z,100.00
2023-03-29T05:13:26.433Z,100.00
2023-03-29T05:16:30.251Z,100.00
2023-03-29T05:19:33.710Z,100.00
2023-03-29T05:22:38.357Z,100.00
2023-03-29T05:25:43.945Z,100.00
2023-03-29T05:28:46.651Z,100.00
2023-03-29T05:31:50.233Z,100.00
2023-03-29T05:34:53.198Z,100.00
2023-03-29T05:37:56.840Z,100.00
2023-03-29T05:41:00.534Z,100.00
2023-03-29T05:44:06.555Z,100.00
2023-03-29T05:47:09.339Z,100.00
2023-03-29T05:50:12.622Z,100.00
2023-03-29T05:53:16.500Z,99.72
2023-03-29T05:56:19.666Z,99.56
2023-03-29T05:59:23.707Z,97.61
2023-03-29T06:02:28.675Z,94.84
2023-03-29T06:05:31.813Z,94.36
2023-03-29T06:08:37.671Z,95.47
2023-03-29T06:11:41.410Z,94.92
2023-03-29T06:14:48.250Z,95.08
2023-03-29T06:17:51.663Z,94.80
2023-03-29T06:20:54.553Z,93.49
2023-03-29T06:23:58.713Z,94.90
2023-03-29T06:27:03.441Z,93.61
2023-03-29T06:30:07.316Z,94.36
2023-03-29T06:33:10.648Z,92.72
2023-03-29T06:36:16.877Z,95.41
2023-03-29T06:39:20.232Z,98.47
2023-03-29T06:42:24.367Z,99.68
2023-03-29T06:45:37.456Z,100.00
2023-03-29T06:48:41.467Z,97.48
2023-03-29T06:51:44.527Z,91.56
2023-03-29T06:54:47.704Z,77.31
2023-03-29T06:57:50.540Z,68.36
2023-03-29T07:00:53.956Z,63.20
2023-03-29T07:03:58.634Z,52.84
2023-03-29T07:07:03.586Z,43.68
2023-03-29T07:10:07.406Z,40.82
2023-03-29T07:13:13.951Z,43.65
2023-03-29T07:16:19.337Z,48.88
2023-03-29T07:19:25.277Z,50.87
2023-03-29T07:22:32.180Z,51.64
2023-03-29T07:25:36.440Z,51.36
2023-03-29T07:28:39.606Z,49.20
2023-03-29T07:31:43.776Z,43.96
2023-03-29T07:34:51.289Z,40.25
2023-03-29T07:37:55.953Z,34.56
2023-03-29T07:40:59.348Z,31.11
2023-03-29T07:44:09.114Z,28.88
2023-03-29T07:47:12.724Z,27.55
2023-03-29T07:50:17.511Z,28.40
2023-03-29T07:53:21.251Z,27.15
2023-03-29T07:56:24.951Z,29.76
2023-03-29T07:59:27.825Z,28.54
2023-03-29T08:02:31.264Z,27.54
2023-03-29T08:05:41.343Z,29.02
2023-03-29T08:08:45.287Z,29.41
2023-03-29T08:11:49.002Z,31.81
2023-03-29T08:14:52.051Z,34.76
2023-03-29T08:17:56.398Z,38.86
2023-03-29T08:21:01.485Z,41.26
2023-03-29T08:24:05.179Z,41.61
2023-03-29T08:27:08.769Z,43.48
2023-03-29T08:30:12.331Z,42.52
2023-03-29T08:33:15.739Z,41.53
2023-03-29T08:36:19.382Z,41.67
2023-03-29T08:39:22.421Z,43.50
2023-03-29T08:42:39.031Z,43.73
2023-03-29T08:46:20.623Z,42.53
2023-03-29T08:49:24.002Z,43.77
2023-03-29T08:52:43.073Z,44.72
2023-03-29T08:55:49.026Z,45.91
2023-03-29T08:58:56.073Z,44.48
2023-03-29T09:02:02.329Z,46.33
2023-03-29T09:05:21.011Z,45.69
2023-03-29T09:08:25.645Z,43.60
2023-03-29T09:11:41.859Z,46.00
2023-03-29T09:15:04.246Z,48.66
2023-03-29T09:18:26.811Z,44.53
2023-03-29T09:21:46.816Z,45.60
2023-03-29T09:24:56.414Z,48.36
2023-03-29T09:28:10.578Z,45.82
2023-03-29T09:31:29.987Z,45.17
2023-03-29T09:34:43.577Z,44.98
2023-03-29T09:37:49.221Z,43.17
2023-03-29T09:40:57.380Z,45.18
2023-03-29T09:44:05.736Z,45.66
2023-03-29T09:47:19.216Z,44.49
2023-03-29T09:50:51.395Z,40.19
2023-03-29T09:53:57.279Z,40.37
2023-03-29T09:57:01.040Z,42.06
2023-03-29T10:00:06.240Z,42.94
2023-03-29T10:03:19.911Z,43.53
2023-03-29T10:06:25.502Z,42.64
2023-03-29T10:09:30.401Z,40.69
2023-03-29T10:12:34.112Z,43.03
2023-03-29T10:15:37.110Z,45.15
2023-03-29T10:18:42.906Z,43.24
2023-03-29T10:21:49.110Z,43.25
2023-03-29T10:24:54.212Z,44.11
2023-03-29T10:28:17.602Z,43.62
2023-03-29T10:31:22.815Z,42.74
2023-03-29T10:34:28.110Z,43.90
2023-03-29T10:37:31.723Z,44.18
2023-03-29T10:40:35.710Z,39.74
2023-03-29T10:43:51.132Z,41.91
2023-03-29T10:46:53.787Z,42.26
2023-03-29T10:50:01.901Z,39.51
2023-03-29T10:53:25.459Z,39.35
2023-03-29T10:56:42.574Z,40.06
2023-03-29T11:00:08.124Z,41.63
2023-03-29T11:03:40.263Z,43.39
2023-03-29T11:06:47.743Z,42.42
2023-03-29T11:10:15.671Z,42.20
2023-03-29T11:13:42.578Z,42.64
2023-03-29T11:16:52.450Z,43.09
2023-03-29T11:20:12.585Z,41.37
2023-03-29T11:23:22.336Z,44.15
2023-03-29T11:26:36.750Z,40.77
2023-03-29T11:30:00.712Z,41.53
2023-03-29T11:33:17.823Z,41.56
2023-03-29T11:36:50.562Z,42.08
2023-03-29T11:40:21.199Z,42.64
2023-03-29T11:43:27.304Z,42.20
2023-03-29T11:46:39.594Z,42.95
2023-03-29T11:49:56.256Z,43.48
2023-03-29T11:53:14.023Z,44.78
2023-03-29T11:56:33.307Z,42.39
2023-03-29T11:59:45.070Z,44.28
2023-03-29T12:02:59.749Z,41.90
2023-03-29T12:06:15.209Z,41.39
2023-03-29T12:09:34.265Z,40.99
2023-03-29T12:13:00.384Z,41.36
2023-03-29T12:16:14.940Z,39.62
2023-03-29T12:19:25.877Z,40.64
2023-03-29T12:22:28.897Z,39.65
2023-03-29T12:25:44.583Z,40.69
2023-03-29T12:29:08.346Z,41.24
2023-03-29T12:32:39.233Z,39.56
2023-03-29T12:35:53.270Z,39.37
2023-03-29T12:38:57.969Z,37.56
2023-03-29T12:42:21.720Z,38.09
2023-03-29T12:45:34.359Z,39.32
2023-03-29T12:48:40.293Z,38.43
2023-03-29T12:51:43.904Z,38.87
2023-03-29T12:54:58.630Z,40.31
2023-03-29T12:58:08.367Z,39.79
2023-03-29T13:01:33.313Z,41.92
2023-03-29T13:04:43.783Z,41.95
2023-03-29T13:07:49.787Z,41.80
2023-03-29T13:10:56.770Z,41.89
2023-03-29T13:14:02.018Z,39.93
2023-03-29T13:17:18.515Z,39.55
2023-03-29T13:20:37.569Z,41.35
2023-03-29T13:23:43.381Z,41.98
2023-03-29T13:26:46.225Z,42.30
2023-03-29T13:30:00.557Z,41.97
2023-03-29T13:33:21.776Z,40.77
2023-03-29T13:36:31.927Z,42.34
2023-03-29T13:39:40.862Z,41.67
2023-03-29T13:42:46.749Z,43.56
2023-03-29T13:45:58.783Z,41.77
2023-03-29T13:49:22.135Z,42.57
2023-03-29T13:52:34.552Z,43.63
2023-03-29T13:55:45.643Z,44.86
2023-03-29T13:58:52.391Z,44.66
2023-03-29T14:01:58.184Z,45.40
2023-03-29T14:05:04.220Z,47.74
2023-03-29T14:08:27.138Z,47.59
2023-03-29T14:11:31.194Z,49.66
2023-03-29T14:14:33.930Z,48.94
2023-03-29T14:17:37.563Z,48.98
2023-03-29T14:20:44.566Z,51.18
2023-03-29T14:23:55.266Z,51.19
2023-03-29T14:26:57.964Z,52.14
2023-03-29T14:30:01.138Z,54.53
2023-03-29T14:33:05.267Z,53.13
2023-03-29T14:36:16.599Z,52.79
2023-03-29T14:39:22.335Z,54.35
2023-03-29T14:42:27.959Z,53.37
2023-03-29T14:45:31.000Z,54.99
2023-03-29T14:48:35.720Z,53.66
2023-03-29T14:51:40.551Z,54.46
2023-03-29T14:54:48.640Z,53.52
2023-03-29T14:57:54.784Z,52.97
2023-03-29T15:00:58.005Z,52.23
2023-03-29T15:04:09.181Z,53.45
2023-03-29T15:07:13.256Z,54.61
2023-03-29T15:10:19.314Z,55.15
2023-03-29T15:13:24.694Z,54.30
2023-03-29T15:16:30.469Z,57.24
2023-03-29T15:19:34.402Z,57.59
2023-03-29T15:22:39.052Z,52.01
2023-03-29T15:25:58.493Z,53.46
2023-03-29T15:29:13.829Z,52.47
2023-03-29T15:32:25.277Z,51.83
2023-03-29T15:35:27.983Z,51.55
2023-03-29T15:38:40.954Z,51.30
2023-03-29T15:41:48.725Z,51.54
2023-03-29T15:44:56.307Z,52.65
2023-03-29T15:48:02.041Z,53.76
2023-03-29T15:51:06.990Z,54.48
2023-03-29T15:54:09.857Z,53.55
2023-03-29T15:57:15.895Z,56.37
2023-03-29T16:00:21.101Z,52.57
2023-03-29T16:03:24.673Z,53.51
2023-03-29T16:06:27.447Z,53.68
2023-03-29T16:09:30.794Z,53.10
2023-03-29T16:12:35.738Z,53.73
2023-03-29T16:15:40.474Z,53.90
2023-03-29T16:18:43.212Z,53.91
2023-03-29T16:21:46.253Z,54.03
2023-03-29T16:24:48.909Z,54.06
2023-03-29T16:27:52.845Z,53.72
2023-03-29T16:30:55.593Z,54.77
2023-03-29T16:33:58.540Z,55.27
2023-03-29T16:37:01.248Z,55.37
2023-03-29T16:40:07.761Z,56.61
2023-03-29T16:43:19.426Z,58.68
2023-03-29T16:46:23.373Z,56.49
2023-03-29T16:49:26.396Z,61.75
2023-03-29T16:52:29.340Z,65.75
2023-03-29T16:55:32.056Z,67.61
2023-03-29T16:58:35.128Z,66.76
2023-03-29T17:01:38.720Z,65.36
2023-03-29T17:04:41.972Z,66.17
2023-03-29T17:07:45.675Z,71.58
2023-03-29T17:10:53.295Z,67.57
2023-03-29T17:13:56.506Z,69.04
2023-03-29T17:16:59.592Z,69.11
2023-03-29T17:20:02.477Z,71.73
2023-03-29T17:23:05.566Z,71.98
2023-03-29T17:26:08.533Z,69.85
2023-03-29T17:29:11.580Z,73.75
2023-03-29T17:32:14.381Z,72.72
2023-03-29T17:35:17.324Z,72.86
2023-03-29T17:38:21.196Z,76.97
2023-03-29T17:41:24.148Z,73.71
2023-03-29T17:44:27.071Z,71.30
2023-03-29T17:47:30.044Z,71.87
2023-03-29T17:50:32.729Z,77.86
2023-03-29T17:53:36.209Z,75.54
2023-03-29T17:56:38.902Z,75.06
2023-03-29T17:59:42.185Z,73.94
2023-03-29T18:02:45.469Z,74.73
2023-03-29T18:05:48.654Z,76.56
2023-03-29T18:08:53.184Z,77.62
2023-03-29T18:11:56.819Z,80.20
2023-03-29T18:14:59.543Z,81.23
2023-03-29T18:18:02.570Z,82.84
2023-03-29T18:21:07.019Z,82.64
2023-03-29T18:24:09.960Z,82.35
2023-03-29T18:27:13.123Z,82.53
2023-03-29T18:30:16.881Z,82.74
2023-03-29T18:33:19.444Z,84.17
2023-03-29T18:36:22.548Z,85.55
2023-03-29T18:39:25.821Z,87.18
2023-03-29T18:42:28.877Z,87.13
2023-03-29T18:45:31.635Z,84.20
2023-03-29T18:48:41.897Z,82.55
2023-03-29T18:51:46.333Z,82.00
2023-03-29T18:54:49.307Z,86.59
2023-03-29T18:57:52.000Z,85.75
2023-03-29T19:00:55.092Z,83.06
2023-03-29T19:03:57.857Z,85.32
2023-03-29T19:07:01.900Z,87.46
2023-03-29T19:10:05.420Z,88.19
2023-03-29T19:13:08.491Z,89.59
2023-03-29T19:16:12.173Z,90.40
2023-03-29T19:19:15.293Z,90.16
2023-03-29T19:22:17.901Z,89.69
2023-03-29T19:25:21.204Z,87.58
2023-03-29T19:28:24.778Z,87.51
2023-03-29T19:31:28.115Z,89.26
2023-03-29T19:34:31.090Z,91.36
2023-03-29T19:37:34.097Z,91.99
2023-03-29T19:40:36.737Z,93.09
2023-03-29T19:43:39.851Z,91.23
2023-03-29T19:46:43.212Z,89.27
2023-03-29T19:49:46.562Z,91.48
2023-03-29T19:52:49.295Z,92.34
2023-03-29T19:55:52.420Z,93.94
2023-03-29T19:58:55.730Z,94.45
2023-03-29T20:01:59.358Z,91.82
2023-03-29T20:05:02.788Z,92.42
2023-03-29T20:08:06.768Z,93.64
2023-03-29T20:11:11.569Z,94.60
2023-03-29T20:14:14.311Z,95.76
2023-03-29T20:17:17.176Z,94.37
2023-03-29T20:20:22.065Z,94.86
2023-03-29T20:23:25.087Z,93.93
2023-03-29T20:26:28.185Z,93.36
2023-03-29T20:29:33.256Z,95.40
2023-03-29T20:32:36.879Z,95.05
2023-03-29T20:35:39.880Z,94.86
2023-03-29T20:38:42.606Z,96.06
2023-03-29T20:41:47.783Z,95.30
2023-03-29T20:44:53.846Z,97.60
2023-03-29T20:47:57.902Z,98.89
2023-03-29T20:51:03.076Z,98.25
2023-03-29T20:54:07.665Z,97.15
2023-03-29T20:57:14.138Z,96.01
2023-03-29T21:00:19.697Z,95.19
2023-03-29T21:03:22.410Z,97.41
2023-03-29T21:06:25.483Z,98.26
2023-03-29T21:09:28.361Z,96.77
2023-03-29T21:12:31.577Z,97.99
2023-03-29T21:15:35.255Z,96.61
2023-03-29T21:18:39.352Z,95.99
2023-03-29T21:21:43.218Z,99.36
2023-03-29T21:24:46.225Z,100.00
2023-03-29T21:27:49.208Z,97.38
2023-03-29T21:30:52.251Z,97.05
2023-03-29T21:33:56.593Z,98.11
2023-03-29T21:36:59.574Z,99.65
2023-03-29T21:40:05.942Z,100.00
2023-03-29T21:43:09.301Z,100.00
2023-03-29T21:46:13.871Z,100.00
2023-03-29T21:49:16.897Z,100.00
2023-03-29T21:52:20.308Z,100.00
2023-03-29T21:55:23.245Z,100.00
2023-03-29T21:58:26.481Z,100.00
2023-03-29T22:01:29.691Z,99.97
2023-03-29T22:04:37.067Z,99.08
2023-03-29T22:07:40.142Z,98.05
2023-03-29T22:10:43.054Z,98.90
2023-03-29T22:13:46.292Z,99.18
2023-03-29T22:16:49.358Z,99.08
2023-03-29T22:19:52.425Z,100.00
2023-03-29T22:22:55.772Z,100.00
2023-03-29T22:25:58.416Z,100.00
2023-03-29T22:29:01.698Z,100.00
2023-03-29T22:32:04.934Z,100.00
2023-03-29T22:35:08.732Z,100.00
2023-03-29T22:38:11.354Z,100.00
2023-03-29T22:41:16.131Z,100.00
2023-03-29T22:44:18.729Z,100.00
2023-03-29T22:47:22.351Z,100.00
2023-03-29T22:50:25.089Z,100.00
2023-03-29T22:53:28.485Z,100.00
2023-03-29T22:56:31.075Z,100.00
2023-03-29T22:59:34.061Z,100.00
2023-03-29T23:02:37.268Z,100.00
2023-03-29T23:05:40.458Z,100.00
2023-03-29T23:08:42.982Z,100.00
2023-03-29T23:11:46.035Z,100.00
2023-03-29T23:14:48.705Z,100.00
2023-03-29T23:17:51.813Z,100.00
2023-03-29T23:20:56.640Z,100.00
2023-03-29T23:24:00.597Z,100.00
2023-03-29T23:27:04.935Z,100.00
2023-03-29T23:30:09.699Z,100.00
2023-03-29T23:33:14.532Z,100.00
2023-03-29T23:36:19.274Z,100.00
2023-03-29T23:39:23.659Z,100.00
2023-03-29T23:42:26.678Z,100.00
2023-03-29T23:45:29.561Z,100.00
2023-03-29T23:48:34.222Z,100.00
2023-03-29T23:51:37.027Z,100.00
2023-03-29T23:54:40.119Z,100.00
2023-03-29T23:57:42.981Z,100.00
